Time;durP1;ratioP1;P1;durP2;ratioP2;P2;SDS_P1;SDS_P2;PMS_P1;PMS_P2;Temp;Humidity;BMP_temperature;BMP_pressure;BME280_temperature;BME280_humidity;BME280_pressure;Samples;Min_cycle;Max_cycle;Signal;HPM_P1;HPM_P2
2023/06/30 00:02:25;;;;;;;9.38;4.10;;;15.40;99.90;;;;;;5071574;28;20101;-68
2023/06/30 00:04:51;;;;;;;10.40;3.40;;;15.40;99.90;;;;;;5071365;28;20086;-68
2023/06/30 00:07:20;;;;;;;11.07;4.32;;;15.30;99.90;;;;;;5070989;28;20044;-68
2023/06/30 00:09:47;;;;;;;13.52;4.13;;;15.30;99.90;;;;;;5070950;28;20040;-68
2023/06/30 00:12:13;;;;;;;9.68;3.95;;;15.40;99.90;;;;;;5071204;28;20128;-67
2023/06/30 00:14:39;;;;;;;11.68;4.15;;;15.20;99.90;;;;;;5071004;28;20115;-68
2023/06/30 00:17:04;;;;;;;9.73;3.55;;;15.20;99.90;;;;;;5071083;28;20041;-68
2023/06/30 00:19:30;;;;;;;7.60;3.42;;;15.30;99.90;;;;;;5071205;28;20097;-68
2023/06/30 00:21:56;;;;;;;5.95;3.85;;;15.20;99.90;;;;;;5052868;28;20033;-68
2023/06/30 00:24:21;;;;;;;10.38;3.90;;;15.20;99.90;;;;;;5070811;28;20080;-68
2023/06/30 00:26:47;;;;;;;6.10;4.07;;;15.00;99.90;;;;;;5071195;28;20051;-68
2023/06/30 00:29:12;;;;;;;9.88;3.08;;;15.00;99.90;;;;;;5070786;28;20044;-68
2023/06/30 00:31:38;;;;;;;6.72;3.05;;;15.10;99.90;;;;;;5070889;28;20093;-68
2023/06/30 00:34:03;;;;;;;4.22;2.80;;;15.00;99.90;;;;;;5071060;28;20052;-68
2023/06/30 00:36:29;;;;;;;11.00;4.55;;;14.90;99.90;;;;;;5070937;28;20041;-68
2023/06/30 00:38:55;;;;;;;9.18;3.60;;;15.00;99.90;;;;;;5070716;28;20170;-68
2023/06/30 00:41:24;;;;;;;5.63;3.17;;;15.00;99.90;;;;;;5070586;28;20036;-68
2023/06/30 00:43:49;;;;;;;8.60;3.40;;;14.80;99.90;;;;;;5070622;28;20033;-68
2023/06/30 00:46:17;;;;;;;10.52;3.33;;;14.80;99.90;;;;;;5070971;28;20047;-68
2023/06/30 00:48:44;;;;;;;10.10;3.22;;;14.80;99.90;;;;;;5070710;28;20032;-68
2023/06/30 00:51:11;;;;;;;10.02;4.32;;;14.70;99.90;;;;;;5070521;28;20048;-68
2023/06/30 00:53:36;;;;;;;6.78;3.38;;;14.70;99.90;;;;;;5070832;28;20050;-67
2023/06/30 00:56:02;;;;;;;7.13;3.40;;;14.70;99.90;;;;;;5070893;28;20111;-67
2023/06/30 00:58:27;;;;;;;9.15;3.45;;;14.80;99.90;;;;;;5070580;28;20052;-68
2023/06/30 01:01:02;;;;;;;13.63;3.72;;;14.60;99.90;;;;;;5074175;28;20597;-67
2023/06/30 01:03:39;;;;;;;9.43;3.60;;;14.60;99.90;;;;;;5074370;28;20380;-68
2023/06/30 01:06:23;;;;;;;7.53;3.47;;;14.70;99.90;;;;;;5074390;28;20028;-68
2023/06/30 01:09:09;;;;;;;6.90;3.80;;;14.50;99.90;;;;;;5073777;28;20496;-68
2023/06/30 01:11:36;;;;;;;6.28;3.05;;;14.70;99.90;;;;;;5073989;28;20048;-68
2023/06/30 01:14:02;;;;;;;7.78;3.33;;;14.50;99.90;;;;;;5073925;28;20404;-68
2023/06/30 01:16:30;;;;;;;9.75;4.20;;;14.50;99.90;;;;;;5074089;28;20069;-68
2023/06/30 01:18:58;;;;;;;8.43;3.50;;;14.50;99.90;;;;;;5073760;28;20032;-68
2023/06/30 01:21:26;;;;;;;11.90;3.45;;;14.50;99.90;;;;;;5055836;28;20601;-68
2023/06/30 01:23:54;;;;;;;14.15;4.43;;;14.50;99.90;;;;;;5073665;28;20040;-68
2023/06/30 01:26:21;;;;;;;5.88;3.05;;;14.40;99.90;;;;;;5056185;28;20055;-68
2023/06/30 01:28:50;;;;;;;7.90;3.58;;;14.40;99.90;;;;;;5073482;28;20052;-68
2023/06/30 01:31:18;;;;;;;8.43;3.92;;;14.50;99.90;;;;;;5073406;28;20041;-68
2023/06/30 01:33:43;;;;;;;11.30;3.78;;;14.40;99.90;;;;;;5073631;28;20052;-68
2023/06/30 01:36:09;;;;;;;9.13;3.63;;;14.40;99.90;;;;;;5055721;28;20610;-68
2023/06/30 01:38:35;;;;;;;12.88;3.28;;;14.50;99.90;;;;;;5073485;28;20094;-68
2023/06/30 01:41:01;;;;;;;8.65;3.10;;;14.40;99.90;;;;;;5073091;28;20519;-68
2023/06/30 01:43:29;;;;;;;8.50;3.42;;;14.40;99.90;;;;;;5073245;28;20381;-68
2023/06/30 01:45:55;;;;;;;8.40;3.60;;;14.30;99.90;;;;;;5038970;28;20044;-68
2023/06/30 01:48:21;;;;;;;7.68;4.35;;;14.30;99.90;;;;;;5072886;28;20492;-68
2023/06/30 01:50:47;;;;;;;6.43;3.30;;;14.40;99.90;;;;;;5073017;28;20040;-68
2023/06/30 01:53:13;;;;;;;7.47;4.10;;;14.20;99.90;;;;;;5073196;28;20036;-67
2023/06/30 01:55:44;;;;;;;10.73;4.25;;;14.30;99.90;;;;;;5073294;28;20132;-68
2023/06/30 01:58:10;;;;;;;7.70;3.38;;;14.30;99.90;;;;;;5073030;28;20047;-68
2023/06/30 02:00:35;;;;;;;8.98;3.60;;;14.20;99.90;;;;;;5072788;28;20044;-68
2023/06/30 02:03:01;;;;;;;7.03;3.50;;;14.20;99.90;;;;;;5072919;28;20037;-68
2023/06/30 02:05:27;;;;;;;9.10;4.03;;;14.20;99.90;;;;;;5073219;28;20072;-67
2023/06/30 02:07:52;;;;;;;9.38;3.92;;;14.20;99.90;;;;;;5072901;28;20450;-68
2023/06/30 02:10:18;;;;;;;13.07;4.63;;;14.20;99.90;;;;;;5072477;28;20047;-67
2023/06/30 02:12:43;;;;;;;9.25;3.70;;;14.20;99.90;;;;;;5073033;28;20040;-68
2023/06/30 02:15:09;;;;;;;8.60;3.70;;;14.20;99.90;;;;;;5072888;28;20134;-68
2023/06/30 02:17:35;;;;;;;8.27;3.42;;;14.10;99.90;;;;;;5072453;28;20086;-67
2023/06/30 02:20:03;;;;;;;7.68;3.72;;;14.10;99.90;;;;;;5072624;28;20097;-68
2023/06/30 02:22:29;;;;;;;9.45;3.70;;;14.00;99.90;;;;;;5054912;28;20116;-68
2023/06/30 02:24:56;;;;;;;10.27;3.10;;;14.00;99.90;;;;;;5072510;28;20119;-68
2023/06/30 02:27:22;;;;;;;6.35;3.30;;;14.00;99.90;;;;;;5072342;28;20052;-68
2023/06/30 02:29:47;;;;;;;7.72;4.40;;;14.10;99.90;;;;;;5072288;28;20040;-68
2023/06/30 02:32:13;;;;;;;9.32;3.60;;;13.90;99.90;;;;;;5072499;28;20154;-68
2023/06/30 02:34:38;;;;;;;8.57;4.30;;;13.90;99.90;;;;;;5072505;28;20040;-68
2023/06/30 02:37:04;;;;;;;10.93;3.95;;;14.00;99.90;;;;;;5072308;28;20519;-68
2023/06/30 02:39:30;;;;;;;6.40;3.70;;;14.00;99.90;;;;;;5072559;28;20552;-67
2023/06/30 02:41:55;;;;;;;10.98;4.35;;;13.80;99.90;;;;;;5071973;28;20499;-68
2023/06/30 02:44:21;;;;;;;8.20;3.35;;;13.80;99.90;;;;;;5072219;28;20036;-68
2023/06/30 02:46:47;;;;;;;8.10;3.55;;;13.90;99.90;;;;;;5072174;28;20040;-68
2023/06/30 02:49:12;;;;;;;11.23;4.40;;;13.80;99.90;;;;;;5072101;28;20036;-67
2023/06/30 02:51:38;;;;;;;9.38;3.25;;;13.70;99.90;;;;;;5071985;28;20028;-68
2023/06/30 02:54:03;;;;;;;8.60;3.03;;;13.80;99.90;;;;;;5072169;28;20101;-68
2023/06/30 02:56:29;;;;;;;13.05;3.72;;;13.70;99.90;;;;;;5072183;28;20047;-67
2023/06/30 02:58:55;;;;;;;9.20;3.50;;;13.70;99.90;;;;;;5071843;28;20123;-68
2023/06/30 03:01:21;;;;;;;9.10;3.75;;;13.60;99.90;;;;;;5071555;28;20044;-68
2023/06/30 03:03:48;;;;;;;9.65;3.42;;;13.70;99.90;;;;;;5072090;28;20028;-68
2023/06/30 03:06:13;;;;;;;4.50;3.20;;;13.70;99.90;;;;;;5072177;28;20054;-68
2023/06/30 03:08:39;;;;;;;7.60;3.20;;;13.70;99.90;;;;;;5071873;28;20123;-68
2023/06/30 03:11:05;;;;;;;9.82;3.17;;;13.70;99.90;;;;;;5071282;28;20033;-67
2023/06/30 03:13:30;;;;;;;8.80;3.67;;;13.70;99.90;;;;;;5071441;28;20028;-68
2023/06/30 03:15:56;;;;;;;10.30;3.53;;;13.60;99.90;;;;;;5071219;28;20511;-67
2023/06/30 03:18:21;;;;;;;9.52;3.60;;;13.60;99.90;;;;;;5071138;28;20044;-68
2023/06/30 03:20:49;;;;;;;7.57;3.13;;;13.60;99.90;;;;;;5071018;28;20032;-68
2023/06/30 03:23:15;;;;;;;6.55;3.30;;;13.60;99.90;;;;;;5070708;28;20403;-68
2023/06/30 03:25:41;;;;;;;8.98;3.63;;;13.50;99.90;;;;;;5071415;28;20037;-68
2023/06/30 03:28:06;;;;;;;9.60;3.85;;;13.40;99.90;;;;;;5070953;28;20028;-68
2023/06/30 03:30:32;;;;;;;9.32;3.25;;;13.50;99.90;;;;;;5070760;28;20036;-68
2023/06/30 03:32:57;;;;;;;10.35;3.22;;;13.40;99.90;;;;;;5071396;28;20033;-68
2023/06/30 03:35:23;;;;;;;5.53;3.42;;;13.50;99.90;;;;;;5071387;28;20056;-68
2023/06/30 03:37:48;;;;;;;7.43;4.00;;;13.30;99.90;;;;;;5071000;28;20119;-68
2023/06/30 03:40:14;;;;;;;6.53;3.45;;;13.40;99.90;;;;;;5070770;28;20389;-68
2023/06/30 03:42:40;;;;;;;6.35;3.25;;;13.40;99.90;;;;;;5071208;28;20094;-68
2023/06/30 03:45:06;;;;;;;7.30;3.75;;;13.30;99.90;;;;;;5070807;28;20090;-67
2023/06/30 03:47:32;;;;;;;16.88;4.50;;;13.30;99.90;;;;;;5070992;28;20047;-68
2023/06/30 03:49:57;;;;;;;10.05;3.65;;;13.40;99.90;;;;;;5070767;28;20443;-67
2023/06/30 03:52:23;;;;;;;7.28;3.38;;;13.40;99.90;;;;;;5071200;28;20044;-68
2023/06/30 03:54:49;;;;;;;4.85;3.00;;;13.30;99.90;;;;;;5071009;28;20493;-68
2023/06/30 03:57:15;;;;;;;12.20;3.72;;;13.40;99.90;;;;;;5070737;28;20049;-68
2023/06/30 03:59:40;;;;;;;5.22;3.30;;;13.30;99.90;;;;;;5070500;28;20118;-68
2023/06/30 04:02:06;;;;;;;8.55;3.72;;;13.40;99.90;;;;;;5070583;28;20043;-68
2023/06/30 04:04:31;;;;;;;7.20;3.58;;;13.30;99.90;;;;;;5070935;28;20059;-68
2023/06/30 04:06:57;;;;;;;6.25;3.50;;;13.40;99.90;;;;;;5070743;28;20124;-68
2023/06/30 04:09:23;;;;;;;10.70;3.63;;;13.30;99.90;;;;;;5070933;28;20036;-68
2023/06/30 04:11:48;;;;;;;8.32;3.97;;;13.30;99.90;;;;;;5070529;28;20040;-68
2023/06/30 04:14:14;;;;;;;6.65;3.53;;;13.30;99.90;;;;;;5070717;28;20179;-68
2023/06/30 04:16:40;;;;;;;10.80;4.05;;;13.30;99.90;;;;;;5070861;28;20491;-68
2023/06/30 04:19:05;;;;;;;7.53;3.60;;;13.40;99.90;;;;;;5070700;28;20038;-68
2023/06/30 04:21:31;;;;;;;6.97;2.80;;;13.40;99.90;;;;;;5070495;28;20491;-68
2023/06/30 04:23:57;;;;;;;9.82;4.00;;;13.40;99.90;;;;;;5070501;28;20412;-68
2023/06/30 04:26:22;;;;;;;5.57;2.80;;;13.40;99.90;;;;;;5070750;28;20392;-68
2023/06/30 04:28:48;;;;;;;6.53;3.63;;;13.40;99.90;;;;;;5070245;28;20032;-68
2023/06/30 04:31:13;;;;;;;9.52;3.53;;;13.60;99.90;;;;;;5070514;28;20036;-68
2023/06/30 04:33:39;;;;;;;13.23;4.90;;;13.60;99.90;;;;;;5072682;28;20044;-68
2023/06/30 04:36:06;;;;;;;8.73;3.67;;;13.60;99.90;;;;;;5074433;28;20040;-68
2023/06/30 04:38:32;;;;;;;6.07;3.72;;;13.60;99.90;;;;;;5073990;28;20527;-68
2023/06/30 04:40:57;;;;;;;9.20;3.75;;;13.70;99.90;;;;;;5073975;28;20036;-68
2023/06/30 04:43:23;;;;;;;8.35;3.78;;;13.80;99.90;;;;;;5074039;28;20101;-68
2023/06/30 04:45:49;;;;;;;11.48;4.03;;;13.80;99.90;;;;;;5074170;28;20069;-68
2023/06/30 04:48:14;;;;;;;9.43;3.80;;;13.90;99.90;;;;;;5074037;28;20037;-68
2023/06/30 04:50:40;;;;;;;7.38;3.85;;;14.10;99.90;;;;;;5073882;28;20033;-68
2023/06/30 04:53:05;;;;;;;6.65;3.60;;;14.30;99.90;;;;;;5074052;28;20036;-68
2023/06/30 04:55:31;;;;;;;7.63;3.83;;;14.50;99.90;;;;;;5074159;28;20173;-68
2023/06/30 04:57:56;;;;;;;10.25;4.10;;;14.70;99.90;;;;;;5073663;28;20072;-68
2023/06/30 05:00:23;;;;;;;8.82;3.50;;;14.80;99.90;;;;;;5073823;28;20037;-68
2023/06/30 05:02:49;;;;;;;7.38;3.28;;;14.90;99.90;;;;;;5074053;28;20085;-68
2023/06/30 05:05:15;;;;;;;8.02;3.55;;;15.10;99.90;;;;;;5055471;28;20130;-68
2023/06/30 05:07:41;;;;;;;6.13;2.80;;;15.30;99.90;;;;;;5073447;28;20040;-68
2023/06/30 05:10:07;;;;;;;9.10;3.40;;;15.50;99.90;;;;;;5073028;28;20054;-68
2023/06/30 05:12:32;;;;;;;8.95;3.22;;;15.60;99.90;;;;;;5073707;28;20043;-68
2023/06/30 05:14:58;;;;;;;10.85;3.63;;;15.90;99.90;;;;;;5073644;28;20036;-68
2023/06/30 05:17:24;;;;;;;6.70;2.75;;;16.10;99.90;;;;;;5073463;28;20044;-68
2023/06/30 05:19:49;;;;;;;7.10;3.45;;;16.30;99.90;;;;;;5073159;28;20051;-68
2023/06/30 05:22:15;;;;;;;7.82;3.53;;;16.40;99.90;;;;;;5073609;28;20036;-68
2023/06/30 05:24:41;;;;;;;6.68;3.05;;;16.60;99.90;;;;;;5073261;28;20067;-67
2023/06/30 05:27:06;;;;;;;7.97;3.05;;;16.90;99.90;;;;;;5073109;28;20072;-68
2023/06/30 05:29:32;;;;;;;5.30;2.72;;;17.20;99.90;;;;;;5073740;28;20460;-68
2023/06/30 05:31:57;;;;;;;6.78;2.60;;;17.30;99.90;;;;;;5073231;28;20075;-68
2023/06/30 05:34:23;;;;;;;6.90;2.67;;;17.50;99.90;;;;;;5073424;28;20512;-68
2023/06/30 05:36:49;;;;;;;4.57;2.60;;;17.80;99.90;;;;;;5073092;28;20056;-67
2023/06/30 05:39:14;;;;;;;8.27;2.50;;;18.00;99.90;;;;;;5073271;28;20040;-68
2023/06/30 05:41:40;;;;;;;5.63;3.17;;;18.20;99.90;;;;;;5072731;28;20489;-68
2023/06/30 05:44:09;;;;;;;4.00;2.10;;;18.50;99.90;;;;;;5072948;28;20093;-68
2023/06/30 05:46:37;;;;;;;5.05;2.80;;;18.80;99.90;;;;;;5072987;28;20048;-68
2023/06/30 05:49:05;;;;;;;8.57;2.83;;;18.80;99.90;;;;;;5072737;28;20036;-67
2023/06/30 05:51:33;;;;;;;4.78;1.98;;;19.10;99.90;;;;;;5072695;28;20036;-68
2023/06/30 05:53:58;;;;;;;6.35;2.38;;;19.10;99.90;;;;;;5072945;28;20519;-68
2023/06/30 05:56:24;;;;;;;7.65;2.00;;;19.20;99.90;;;;;;5072853;28;20120;-68
2023/06/30 05:58:50;;;;;;;4.43;2.72;;;19.40;99.90;;;;;;5072818;28;20119;-67
2023/06/30 06:01:16;;;;;;;4.10;2.10;;;19.40;99.90;;;;;;5072618;28;20032;-68
2023/06/30 06:03:41;;;;;;;8.93;2.28;;;19.50;99.90;;;;;;5072796;28;20037;-68
2023/06/30 06:06:07;;;;;;;4.57;2.38;;;19.60;99.90;;;;;;5072812;28;20040;-68
2023/06/30 06:08:33;;;;;;;6.30;1.98;;;19.70;99.90;;;;;;5072422;28;20064;-68
2023/06/30 06:10:58;;;;;;;4.93;2.65;;;19.90;99.90;;;;;;5071910;28;20040;-68
2023/06/30 06:13:35;;;;;;;4.50;2.10;;;20.00;99.90;;;;;;5072278;28;20079;-68
2023/06/30 06:16:01;;;;;;;7.10;1.88;;;20.30;99.90;;;;;;5067912;28;20035;-68
2023/06/30 06:18:27;;;;;;;5.78;2.40;;;20.30;99.90;;;;;;5054896;28;20106;-68
2023/06/30 06:20:52;;;;;;;6.40;2.67;;;20.40;99.90;;;;;;5052028;28;20079;-68
2023/06/30 06:23:18;;;;;;;4.45;1.92;;;20.40;99.90;;;;;;5051963;28;20408;-68
2023/06/30 06:25:44;;;;;;;2.17;1.75;;;20.40;99.90;;;;;;5052315;28;20037;-68
2023/06/30 06:28:09;;;;;;;3.17;1.80;;;20.50;99.90;;;;;;5051596;28;20513;-68
2023/06/30 06:30:35;;;;;;;4.53;1.77;;;20.50;99.90;;;;;;5052140;28;20119;-68
2023/06/30 06:33:00;;;;;;;5.57;1.60;;;20.60;99.90;;;;;;5052298;28;20043;-68
2023/06/30 06:35:26;;;;;;;4.78;1.90;;;20.80;99.90;;;;;;5052358;28;20081;-68
2023/06/30 06:37:51;;;;;;;6.38;2.10;;;20.70;99.90;;;;;;5051882;28;20126;-68
2023/06/30 06:40:17;;;;;;;4.57;1.73;;;20.70;99.90;;;;;;5051790;28;20048;-68
2023/06/30 06:42:43;;;;;;;5.18;1.50;;;20.70;99.90;;;;;;5052312;28;20033;-68
2023/06/30 06:45:08;;;;;;;7.25;1.60;;;20.70;99.90;;;;;;5052005;28;20095;-68
2023/06/30 06:48:11;;;;;;;5.35;1.45;;;20.90;99.90;;;;;;5051777;28;20041;-68
2023/06/30 06:50:37;;;;;;;4.75;1.25;;;21.00;99.90;;;;;;5051526;28;20048;-67
2023/06/30 06:53:03;;;;;;;4.68;1.50;;;21.10;99.90;;;;;;5052074;28;20401;-68
2023/06/30 06:55:28;;;;;;;3.50;1.27;;;21.20;99.90;;;;;;5052005;28;20041;-67
2023/06/30 06:57:54;;;;;;;2.33;1.17;;;21.20;99.90;;;;;;5050880;28;20080;-68
2023/06/30 07:00:20;;;;;;;7.05;1.48;;;21.00;99.90;;;;;;5051516;28;20041;-68
2023/06/30 07:02:45;;;;;;;4.35;1.40;;;21.10;99.90;;;;;;5051419;28;20073;-68
2023/06/30 07:05:11;;;;;;;5.00;1.30;;;21.50;99.90;;;;;;5051870;28;20480;-68
2023/06/30 07:07:37;;;;;;;3.20;1.63;;;21.30;99.90;;;;;;5051472;28;20045;-68
2023/06/30 07:10:03;;;;;;;4.75;1.95;;;21.40;99.90;;;;;;5052054;28;20135;-68
2023/06/30 07:12:29;;;;;;;2.95;1.20;;;21.20;99.90;;;;;;5043398;28;20442;-68
2023/06/30 07:14:54;;;;;;;6.65;1.67;;;21.30;99.90;;;;;;5061762;28;20037;-68
2023/06/30 07:17:21;;;;;;;4.93;1.63;;;21.40;99.90;;;;;;5059757;28;20408;-68
2023/06/30 07:19:46;;;;;;;4.72;1.00;;;21.40;99.90;;;;;;5060936;28;20711;-67
2023/06/30 07:22:12;;;;;;;5.28;1.20;;;21.00;99.90;;;;;;5061622;28;20037;-68
2023/06/30 07:24:37;;;;;;;5.38;1.55;;;21.10;99.90;;;;;;5059634;28;20198;-68
2023/06/30 07:27:03;;;;;;;4.72;1.50;;;21.00;99.90;;;;;;5066868;28;20102;-68
2023/06/30 07:29:29;;;;;;;4.53;1.05;;;20.80;99.90;;;;;;5063364;28;20114;-68
2023/06/30 07:31:54;;;;;;;3.63;1.38;;;20.90;99.90;;;;;;5070468;28;20082;-68
2023/06/30 07:34:21;;;;;;;2.88;1.13;;;20.70;99.90;;;;;;5070651;28;20028;-68
2023/06/30 07:36:47;;;;;;;3.05;1.10;;;20.40;99.90;;;;;;5070908;28;20051;-68
2023/06/30 07:39:12;;;;;;;3.22;1.15;;;20.20;99.90;;;;;;5052532;28;20033;-68
2023/06/30 07:41:38;;;;;;;4.28;1.30;;;19.90;99.90;;;;;;5070559;28;20436;-68
2023/06/30 07:44:04;;;;;;;5.45;1.50;;;19.80;99.90;;;;;;5070734;28;20083;-68
2023/06/30 07:46:30;;;;;;;2.88;1.00;;;20.00;99.90;;;;;;5070146;28;20518;-68
2023/06/30 07:48:56;;;;;;;3.58;1.38;;;20.50;99.90;;;;;;5067661;28;20041;-68
2023/06/30 07:51:22;;;;;;;7.88;1.17;;;20.70;99.90;;;;;;5062427;28;20458;-67
2023/06/30 07:53:47;;;;;;;4.80;1.80;;;20.80;99.90;;;;;;5070521;28;20439;-67
2023/06/30 07:56:13;;;;;;;4.85;1.23;;;20.80;99.90;;;;;;5071049;28;20542;-68
2023/06/30 07:58:38;;;;;;;3.20;1.00;;;20.70;99.90;;;;;;5070838;28;20568;-68
2023/06/30 08:01:04;;;;;;;7.32;1.65;;;20.90;99.90;;;;;;5070114;28;20041;-68
2023/06/30 08:03:30;;;;;;;2.78;1.15;;;21.20;99.90;;;;;;5070751;28;20079;-68
2023/06/30 08:05:56;;;;;;;4.47;1.40;;;21.40;99.90;;;;;;5071181;28;20040;-68
2023/06/30 08:08:23;;;;;;;4.88;1.25;;;21.60;99.90;;;;;;5054538;28;20076;-68
2023/06/30 08:10:49;;;;;;;3.53;1.25;;;21.40;99.90;;;;;;5074719;28;20067;-67
2023/06/30 08:13:15;;;;;;;2.85;1.10;;;21.40;99.90;;;;;;5074155;28;20082;-68
2023/06/30 08:15:41;;;;;;;4.40;0.90;;;21.40;99.90;;;;;;5074459;28;20130;-68
2023/06/30 08:18:07;;;;;;;2.45;1.00;;;21.40;99.50;;;;;;5074067;28;20116;-67
2023/06/30 08:20:32;;;;;;;2.65;1.00;;;21.70;98.60;;;;;;5074652;28;20044;-68
2023/06/30 08:22:58;;;;;;;3.83;1.70;;;22.20;98.40;;;;;;5072835;28;20146;-68
2023/06/30 08:25:24;;;;;;;6.30;1.02;;;22.40;97.40;;;;;;5062251;28;20060;-68
2023/06/30 08:27:50;;;;;;;3.97;1.60;;;22.10;96.70;;;;;;5056770;28;20079;-68
2023/06/30 08:30:16;;;;;;;9.68;1.27;;;22.40;97.30;;;;;;5049545;28;20036;-68
2023/06/30 08:32:42;;;;;;;4.07;1.00;;;22.50;96.50;;;;;;5066020;28;20404;-68
2023/06/30 08:35:08;;;;;;;6.65;1.60;;;22.80;96.60;;;;;;5064590;28;20416;-67
2023/06/30 08:37:34;;;;;;;5.00;1.08;;;22.50;96.00;;;;;;5068829;28;20040;-68
2023/06/30 08:40:03;;;;;;;11.05;1.67;;;22.10;96.50;;;;;;5070470;28;20195;-68
2023/06/30 08:42:30;;;;;;;4.80;0.93;;;22.00;96.00;;;;;;5074298;28;20051;-68
2023/06/30 08:44:57;;;;;;;3.72;1.10;;;22.10;96.10;;;;;;5050698;28;20518;-68
2023/06/30 08:47:25;;;;;;;2.38;0.85;;;22.20;95.50;;;;;;5044103;28;20037;-68
2023/06/30 08:49:55;;;;;;;8.70;1.38;;;22.40;95.50;;;;;;5035711;28;20073;-68
2023/06/30 08:52:21;;;;;;;4.10;1.42;;;22.60;94.30;;;;;;5054192;28;20029;-68
2023/06/30 08:54:47;;;;;;;4.75;1.17;;;22.80;94.70;;;;;;5054068;28;20037;-68
2023/06/30 08:57:15;;;;;;;5.43;1.58;;;23.10;94.80;;;;;;5053736;28;20064;-69
2023/06/30 08:59:42;;;;;;;2.72;0.73;;;22.70;94.70;;;;;;5061581;28;20044;-68
2023/06/30 09:02:08;;;;;;;5.35;0.82;;;22.70;92.90;;;;;;5072904;28;20577;-67
2023/06/30 09:04:34;;;;;;;3.75;1.08;;;23.00;91.30;;;;;;5070882;28;20028;-68
2023/06/30 09:07:02;;;;;;;5.80;1.33;;;23.20;90.60;;;;;;5070054;28;20051;-68
2023/06/30 09:09:34;;;;;;;3.20;0.80;;;23.40;89.30;;;;;;5069979;28;20033;-68
2023/06/30 09:12:00;;;;;;;2.30;1.10;;;23.50;90.00;;;;;;5061951;28;20111;-68
2023/06/30 09:14:33;;;;;;;3.38;1.23;;;23.50;90.00;;;;;;5053771;28;20477;-68
2023/06/30 09:17:02;;;;;;;2.53;0.77;;;23.70;89.40;;;;;;5053638;28;20044;-68
2023/06/30 09:19:28;;;;;;;5.75;1.00;;;23.60;88.50;;;;;;5052966;28;20112;-68
2023/06/30 09:21:55;;;;;;;3.15;0.93;;;23.10;86.90;;;;;;5053420;28;20111;-68
2023/06/30 09:24:21;;;;;;;3.75;0.95;;;23.50;84.70;;;;;;5053509;28;20033;-68
2023/06/30 09:26:46;;;;;;;4.00;0.82;;;23.50;84.60;;;;;;5053665;28;20041;-68
2023/06/30 09:29:12;;;;;;;3.55;0.98;;;23.70;84.30;;;;;;5053589;28;20041;-68
2023/06/30 09:31:39;;;;;;;2.45;0.88;;;23.50;84.90;;;;;;5053318;28;20041;-68
2023/06/30 09:34:09;;;;;;;4.90;1.20;;;23.20;83.90;;;;;;5053585;28;20041;-68
2023/06/30 09:36:37;;;;;;;3.97;0.60;;;22.70;81.10;;;;;;5053560;28;20036;-68
2023/06/30 09:39:05;;;;;;;3.30;0.70;;;22.40;82.00;;;;;;5053149;28;20091;-68
2023/06/30 09:41:31;;;;;;;0.90;0.52;;;22.70;84.10;;;;;;5053007;28;20037;-68
2023/06/30 09:43:57;;;;;;;2.25;0.60;;;23.00;83.70;;;;;;5053498;28;20090;-69
2023/06/30 09:46:23;;;;;;;3.90;0.88;;;23.30;82.80;;;;;;5053061;28;20595;-68
2023/06/30 09:48:53;;;;;;;2.03;1.00;;;23.60;82.80;;;;;;5037153;28;20076;-68
2023/06/30 09:51:21;;;;;;;2.95;0.98;;;23.40;79.70;;;;;;5055403;28;20569;-69
2023/06/30 09:53:46;;;;;;;1.83;0.60;;;23.20;80.50;;;;;;5052978;28;20564;-68
2023/06/30 09:56:20;;;;;;;2.88;0.85;;;22.90;83.20;;;;;;5035429;28;20121;-69
2023/06/30 09:58:46;;;;;;;3.22;0.70;;;22.50;80.80;;;;;;5052966;28;20044;-68
2023/06/30 10:01:11;;;;;;;2.60;0.98;;;22.10;84.70;;;;;;5052610;28;20377;-68
2023/06/30 10:03:48;;;;;;;5.85;1.17;;;21.90;85.60;;;;;;5052971;28;20037;-69
2023/06/30 10:06:16;;;;;;;2.30;0.75;;;21.80;86.90;;;;;;5052857;28;20102;-68
2023/06/30 10:08:42;;;;;;;4.25;1.38;;;22.10;87.10;;;;;;5035034;28;20140;-68
2023/06/30 10:11:08;;;;;;;2.13;0.65;;;22.50;85.80;;;;;;5052714;28;20037;-68
2023/06/30 10:13:35;;;;;;;7.05;1.52;;;22.60;85.10;;;;;;5052937;28;20120;-68
2023/06/30 10:16:01;;;;;;;2.38;0.70;;;22.50;85.10;;;;;;5052876;28;20151;-68
2023/06/30 10:18:28;;;;;;;2.72;0.95;;;22.20;87.10;;;;;;5052486;28;20079;-68
2023/06/30 10:20:53;;;;;;;3.50;0.95;;;22.00;88.00;;;;;;5052291;28;20116;-68
2023/06/30 10:23:22;;;;;;;1.42;0.63;;;21.70;87.00;;;;;;5052556;28;20123;-68
2023/06/30 10:25:49;;;;;;;3.47;0.57;;;21.60;89.00;;;;;;5052761;28;20049;-68
2023/06/30 10:28:15;;;;;;;1.50;0.65;;;21.80;89.90;;;;;;5034434;28;20129;-68
2023/06/30 10:30:41;;;;;;;1.85;0.60;;;21.80;90.10;;;;;;5051951;28;20123;-68
2023/06/30 10:33:07;;;;;;;3.80;0.88;;;22.00;88.20;;;;;;5052341;28;20543;-68
2023/06/30 10:35:35;;;;;;;1.65;0.60;;;22.20;84.40;;;;;;5052430;28;20037;-68
2023/06/30 10:38:01;;;;;;;2.20;0.68;;;22.40;81.20;;;;;;5052184;28;20535;-68
2023/06/30 10:40:29;;;;;;;1.60;0.80;;;22.40;83.70;;;;;;5034344;28;20123;-68
2023/06/30 10:42:57;;;;;;;7.25;1.90;;;22.20;83.80;;;;;;5052347;28;20412;-68
2023/06/30 10:45:30;;;;;;;2.90;0.63;;;21.90;82.40;;;;;;5052282;28;20052;-68
2023/06/30 10:47:56;;;;;;;2.08;0.80;;;21.70;78.90;;;;;;5051753;28;20427;-68
2023/06/30 10:50:23;;;;;;;1.77;0.75;;;21.80;78.40;;;;;;5052098;28;20095;-68
2023/06/30 10:52:53;;;;;;;1.67;0.68;;;22.10;79.30;;;;;;5052202;28;20068;-68
2023/06/30 10:55:21;;;;;;;3.63;0.60;;;22.30;79.80;;;;;;5052265;28;20066;-68
2023/06/30 10:57:52;;;;;;;3.33;0.63;;;22.50;80.10;;;;;;5051907;28;20098;-68
2023/06/30 11:00:20;;;;;;;3.80;0.88;;;22.50;78.10;;;;;;5051648;28;20044;-68
2023/06/30 11:02:49;;;;;;;2.47;0.90;;;22.60;76.00;;;;;;5052229;28;20119;-68
2023/06/30 11:05:25;;;;;;;1.80;0.60;;;22.60;73.50;;;;;;5052125;28;20053;-68
2023/06/30 11:08:12;;;;;;;3.00;0.60;;;22.80;73.70;;;;;;5051762;28;20040;-68
2023/06/30 11:10:44;;;;;;;1.55;0.80;;;22.80;72.50;;;;;;5050953;28;20048;-68
2023/06/30 11:13:10;;;;;;;3.72;0.95;;;22.80;69.40;;;;;;5052049;28;20045;-68
2023/06/30 11:15:41;;;;;;;5.05;1.40;;;22.50;70.20;;;;;;5051685;28;20048;-68
2023/06/30 11:18:10;;;;;;;4.63;1.48;;;22.60;69.60;;;;;;5051563;28;20076;-68
2023/06/30 11:20:36;;;;;;;2.30;1.02;;;22.60;69.80;;;;;;5051470;28;20040;-68
2023/06/30 11:23:15;;;;;;;3.83;1.45;;;22.70;70.90;;;;;;5051499;28;20163;-68
2023/06/30 11:25:41;;;;;;;1.85;0.70;;;22.80;67.70;;;;;;5051883;28;20047;-68
2023/06/30 11:28:08;;;;;;;2.47;0.80;;;22.90;67.20;;;;;;5051469;28;20037;-68
2023/06/30 11:30:36;;;;;;;1.98;0.60;;;23.00;66.90;;;;;;5051340;28;20049;-68
2023/06/30 11:33:04;;;;;;;2.95;0.70;;;22.80;68.70;;;;;;5051948;28;20119;-68
2023/06/30 11:35:32;;;;;;;2.92;0.80;;;22.50;67.80;;;;;;5065008;28;20037;-68
2023/06/30 11:37:57;;;;;;;6.78;1.10;;;22.20;68.60;;;;;;5067376;28;20044;-68
2023/06/30 11:40:23;;;;;;;4.03;1.23;;;22.00;69.10;;;;;;5071379;28;20048;-68
2023/06/30 11:42:50;;;;;;;6.22;1.00;;;21.90;70.10;;;;;;5071121;28;20033;-68
2023/06/30 11:45:20;;;;;;;3.42;0.90;;;22.10;71.80;;;;;;5062854;28;20045;-68
2023/06/30 11:47:48;;;;;;;3.38;1.00;;;22.20;71.90;;;;;;5071182;28;20534;-68
2023/06/30 11:50:14;;;;;;;2.33;0.82;;;22.20;71.90;;;;;;5071143;28;20064;-68
2023/06/30 11:52:40;;;;;;;6.50;1.40;;;22.10;71.70;;;;;;5071642;28;20045;-68
2023/06/30 11:55:11;;;;;;;3.40;1.08;;;21.90;73.10;;;;;;5071426;28;20082;-68
2023/06/30 11:57:41;;;;;;;3.47;0.90;;;21.80;74.40;;;;;;5053156;28;20561;-68
2023/06/30 12:00:11;;;;;;;4.80;1.02;;;21.70;77.00;;;;;;5071094;28;20040;-68
2023/06/30 12:02:40;;;;;;;2.97;1.17;;;21.50;77.80;;;;;;5071339;28;20120;-67
2023/06/30 12:05:14;;;;;;;3.75;1.10;;;21.70;78.20;;;;;;5070342;28;20040;-68
2023/06/30 12:07:41;;;;;;;3.63;1.02;;;21.70;78.70;;;;;;5062545;28;20036;-67
2023/06/30 12:10:08;;;;;;;3.70;0.98;;;21.80;77.20;;;;;;5070944;28;20450;-67
2023/06/30 12:12:35;;;;;;;2.25;1.30;;;21.90;74.90;;;;;;5051950;28;20520;-67
2023/06/30 12:15:03;;;;;;;2.95;0.98;;;21.90;75.80;;;;;;5051003;28;20627;-67
2023/06/30 12:17:29;;;;;;;5.60;1.38;;;22.10;76.50;;;;;;5050504;28;20049;-67
2023/06/30 12:19:54;;;;;;;5.40;1.10;;;22.10;74.60;;;;;;5050378;28;20048;-67
2023/06/30 12:22:30;;;;;;;2.92;1.00;;;22.10;73.70;;;;;;5050953;28;20041;-67
2023/06/30 12:24:57;;;;;;;4.22;1.60;;;22.10;71.70;;;;;;5050577;28;20048;-68
2023/06/30 12:27:26;;;;;;;3.03;1.17;;;22.10;72.80;;;;;;5050762;28;20066;-68
2023/06/30 12:29:51;;;;;;;6.68;1.50;;;22.30;75.10;;;;;;5052029;28;20087;-67
2023/06/30 12:32:17;;;;;;;2.83;1.20;;;22.20;74.40;;;;;;5060242;28;20033;-67
2023/06/30 12:34:45;;;;;;;1.98;1.00;;;22.10;73.10;;;;;;5061359;28;20035;-67
2023/06/30 12:37:11;;;;;;;4.40;1.40;;;22.00;71.70;;;;;;5064868;28;20041;-67
2023/06/30 12:39:37;;;;;;;2.20;1.13;;;22.20;72.10;;;;;;5070852;28;20127;-68
2023/06/30 12:42:02;;;;;;;5.30;1.45;;;22.30;72.30;;;;;;5070573;28;20074;-68
2023/06/30 12:44:30;;;;;;;4.47;1.00;;;22.50;71.40;;;;;;5070063;28;20040;-68